createdAt,value
2022-07-25T00:00:00.612Z,22.01
2022-07-25T00:02:30.229Z,22.03
2022-07-25T00:04:58.668Z,22.03
2022-07-25T00:07:28.271Z,22.01
2022-07-25T00:09:57.012Z,22.03
2022-07-25T00:12:25.459Z,22.02
2022-07-25T00:14:54.024Z,22.02
2022-07-25T00:17:22.341Z,22.02
2022-07-25T00:19:50.708Z,22.02
2022-07-25T00:22:19.111Z,22.01
2022-07-25T00:24:47.460Z,22.02
2022-07-25T00:27:15.769Z,22.03
2022-07-25T00:29:44.177Z,22.03
2022-07-25T00:32:13.708Z,22.02
2022-07-25T00:34:42.058Z,22.03
2022-07-25T00:37:10.537Z,22.03
2022-07-25T00:39:38.888Z,22.03
2022-07-25T00:42:07.911Z,22.02
2022-07-25T00:44:36.578Z,22.01
2022-07-25T00:47:05.045Z,22.00
2022-07-25T00:49:33.645Z,21.97
2022-07-25T00:52:02.329Z,21.95
2022-07-25T00:54:31.084Z,21.92
2022-07-25T00:56:59.594Z,21.91
2022-07-25T00:59:28.086Z,21.89
2022-07-25T01:01:56.588Z,21.86
2022-07-25T01:04:25.477Z,21.84
2022-07-25T01:06:53.864Z,21.82
2022-07-25T01:09:22.467Z,21.78
2022-07-25T01:11:50.808Z,21.76
2022-07-25T01:14:19.344Z,21.73
2022-07-25T01:16:47.656Z,21.70
2022-07-25T01:19:17.273Z,21.67
2022-07-25T01:21:45.718Z,21.66
2022-07-25T01:24:14.390Z,21.64
2022-07-25T01:26:42.860Z,21.61
2022-07-25T01:29:11.318Z,21.59
2022-07-25T01:31:39.802Z,21.56
2022-07-25T01:34:08.701Z,21.54
2022-07-25T01:36:37.289Z,21.52
2022-07-25T01:39:05.732Z,21.50
2022-07-25T01:41:34.115Z,21.49
2022-07-25T01:44:02.603Z,21.47
2022-07-25T01:46:31.284Z,21.45
2022-07-25T01:49:00.120Z,21.42
2022-07-25T01:51:28.587Z,21.39
2022-07-25T01:53:57.045Z,21.37
2022-07-25T01:56:25.950Z,21.36
2022-07-25T01:58:54.302Z,21.34
2022-07-25T02:01:22.707Z,21.31
2022-07-25T02:03:51.518Z,21.29
2022-07-25T02:06:20.845Z,21.27
2022-07-25T02:08:49.211Z,21.25
2022-07-25T02:11:18.269Z,21.20
2022-07-25T02:13:47.897Z,21.17
2022-07-25T02:16:16.319Z,21.13
2022-07-25T02:18:45.795Z,21.13
2022-07-25T02:21:16.008Z,21.11
2022-07-25T02:23:44.938Z,21.09
2022-07-25T02:26:14.014Z,21.07
2022-07-25T02:28:42.491Z,21.02
2022-07-25T02:31:11.032Z,21.02
2022-07-25T02:33:39.435Z,20.99
2022-07-25T02:36:08.477Z,20.96
2022-07-25T02:38:37.257Z,20.94
2022-07-25T02:41:06.315Z,20.92
2022-07-25T02:43:35.001Z,20.90
2022-07-25T02:46:03.854Z,20.89
2022-07-25T02:48:32.424Z,20.88
2022-07-25T02:51:00.948Z,20.86
2022-07-25T02:53:55.464Z,20.85
2022-07-25T02:56:17.677Z,20.85
2022-07-25T02:58:49.629Z,20.83
2022-07-25T03:01:18.125Z,20.81
2022-07-25T03:03:46.639Z,20.79
2022-07-25T03:06:14.991Z,20.78
2022-07-25T03:08:43.303Z,20.74
2022-07-25T03:11:12.901Z,20.71
2022-07-25T03:13:41.317Z,20.68
2022-07-25T03:16:09.976Z,20.66
2022-07-25T03:18:38.313Z,20.62
2022-07-25T03:21:07.497Z,20.57
2022-07-25T03:23:35.971Z,20.54
2022-07-25T03:26:04.799Z,20.53
2022-07-25T03:28:33.675Z,20.55
2022-07-25T03:31:02.940Z,20.55
2022-07-25T03:33:31.280Z,20.54
2022-07-25T03:35:59.673Z,20.54
2022-07-25T03:38:28.125Z,20.51
2022-07-25T03:40:56.499Z,20.49
2022-07-25T03:43:25.489Z,20.48
2022-07-25T03:45:53.955Z,20.45
2022-07-25T03:48:22.437Z,20.45
2022-07-25T03:50:50.969Z,20.47
2022-07-25T03:53:19.346Z,20.47
2022-07-25T03:55:47.764Z,20.46
2022-07-25T03:58:16.110Z,20.47
2022-07-25T04:00:44.514Z,20.47
2022-07-25T04:03:13.028Z,20.45
2022-07-25T04:05:47.224Z,20.47
2022-07-25T04:08:16.007Z,20.49
2022-07-25T04:10:44.389Z,20.50
2022-07-25T04:13:12.964Z,20.51
2022-07-25T04:15:41.403Z,20.51
2022-07-25T04:18:10.158Z,20.51
2022-07-25T04:20:47.035Z,20.51
2022-07-25T04:23:15.605Z,20.50
2022-07-25T04:25:44.147Z,20.51
2022-07-25T04:28:12.518Z,20.51
2022-07-25T04:30:41.042Z,20.52
2022-07-25T04:33:10.369Z,20.52
2022-07-25T04:35:38.847Z,20.53
2022-07-25T04:38:11.918Z,20.54
2022-07-25T04:40:40.836Z,20.55
2022-07-25T04:43:09.709Z,20.55
2022-07-25T04:45:38.323Z,20.57
2022-07-25T04:48:07.266Z,20.61
2022-07-25T04:50:35.585Z,20.74
2022-07-25T04:53:04.620Z,21.11
2022-07-25T04:55:33.051Z,21.77
2022-07-25T04:58:01.447Z,22.22
2022-07-25T05:00:29.774Z,22.79
2022-07-25T05:02:58.533Z,23.03
2022-07-25T05:05:27.291Z,23.09
2022-07-25T05:07:57.910Z,23.12
2022-07-25T05:10:28.259Z,23.46
2022-07-25T05:12:56.872Z,23.67
2022-07-25T05:15:25.225Z,23.64
2022-07-25T05:17:53.627Z,23.48
2022-07-25T05:20:22.036Z,23.29
2022-07-25T05:22:50.580Z,23.11
2022-07-25T05:25:19.336Z,22.98
2022-07-25T05:27:47.722Z,22.85
2022-07-25T05:30:16.241Z,22.82
2022-07-25T05:32:44.558Z,22.86
2022-07-25T05:35:13.053Z,22.95
2022-07-25T05:37:42.099Z,23.40
2022-07-25T05:40:10.779Z,23.80
2022-07-25T05:42:39.603Z,23.97
2022-07-25T05:45:08.416Z,24.13
2022-07-25T05:47:36.806Z,24.22
2022-07-25T05:50:05.485Z,24.19
2022-07-25T05:52:33.840Z,24.08
2022-07-25T05:55:02.444Z,23.96
2022-07-25T05:57:30.864Z,23.84
2022-07-25T05:59:59.209Z,23.72
2022-07-25T06:02:27.702Z,23.69
2022-07-25T06:04:56.248Z,23.62
2022-07-25T06:07:24.636Z,23.50
2022-07-25T06:09:53.138Z,23.42
2022-07-25T06:12:21.591Z,23.37
2022-07-25T06:14:52.908Z,23.32
2022-07-25T06:17:21.899Z,23.29
2022-07-25T06:19:50.229Z,23.28
2022-07-25T06:22:20.028Z,23.27
2022-07-25T06:24:48.488Z,23.29
2022-07-25T06:27:20.341Z,23.30
2022-07-25T06:29:50.193Z,23.27
2022-07-25T06:32:18.569Z,23.24
2022-07-25T06:34:46.919Z,23.20
2022-07-25T06:37:16.078Z,23.15
2022-07-25T06:39:46.094Z,23.17
2022-07-25T06:42:14.649Z,23.23
2022-07-25T06:44:43.759Z,23.31
2022-07-25T06:47:15.177Z,23.33
2022-07-25T06:49:43.799Z,23.35
2022-07-25T06:52:13.090Z,23.32
2022-07-25T06:54:41.638Z,23.31
2022-07-25T06:57:10.190Z,23.39
2022-07-25T06:59:38.793Z,23.57
2022-07-25T07:02:07.466Z,23.73
2022-07-25T07:04:35.997Z,23.92
2022-07-25T07:07:04.741Z,24.10
2022-07-25T07:09:33.182Z,24.27
2022-07-25T07:12:01.674Z,24.47
2022-07-25T07:14:30.228Z,24.70
2022-07-25T07:16:58.783Z,24.85
2022-07-25T07:19:27.086Z,24.97
2022-07-25T07:21:55.606Z,25.02
2022-07-25T07:24:24.800Z,25.04
2022-07-25T07:26:54.525Z,25.06
2022-07-25T07:29:23.276Z,25.05
2022-07-25T07:31:51.766Z,25.02
2022-07-25T07:34:20.518Z,24.98
2022-07-25T07:36:50.268Z,24.91
2022-07-25T07:39:18.749Z,24.88
2022-07-25T07:41:47.198Z,24.89
2022-07-25T07:44:16.429Z,24.89
2022-07-25T07:46:44.825Z,24.90
2022-07-25T07:49:13.409Z,24.88
2022-07-25T07:51:42.048Z,24.85
2022-07-25T07:54:31.354Z,24.83
2022-07-25T07:56:59.654Z,24.81
2022-07-25T07:59:28.791Z,24.82
2022-07-25T08:01:57.264Z,24.85
2022-07-25T08:04:25.843Z,24.83
2022-07-25T08:06:54.218Z,24.84
2022-07-25T08:09:23.756Z,24.94
2022-07-25T08:11:53.172Z,25.03
2022-07-25T08:14:21.783Z,25.10
2022-07-25T08:16:52.694Z,25.13
2022-07-25T08:19:21.367Z,25.12
2022-07-25T08:21:49.847Z,25.09
2022-07-25T08:24:18.262Z,25.10
2022-07-25T08:26:46.905Z,25.08
2022-07-25T08:29:20.140Z,25.01
2022-07-25T08:31:50.552Z,24.99
2022-07-25T08:34:22.686Z,24.95
2022-07-25T08:36:51.048Z,24.88
2022-07-25T08:39:19.402Z,24.79
2022-07-25T08:41:48.106Z,24.72
2022-07-25T08:44:18.641Z,24.68
2022-07-25T08:46:48.279Z,24.71
2022-07-25T08:49:17.263Z,24.76
2022-07-25T08:51:46.504Z,24.77
2022-07-25T08:54:19.862Z,24.75
2022-07-25T08:56:51.266Z,24.74
2022-07-25T08:59:19.624Z,24.74
2022-07-25T09:01:48.039Z,24.70
2022-07-25T09:04:17.326Z,24.62
2022-07-25T09:06:52.605Z,24.54
2022-07-25T09:09:33.555Z,24.42
2022-07-25T09:12:03.116Z,24.33
2022-07-25T09:14:41.847Z,24.24
2022-07-25T09:17:21.981Z,24.18
2022-07-25T09:19:56.063Z,24.13
2022-07-25T09:22:24.420Z,24.10
2022-07-25T09:24:52.736Z,24.04
2022-07-25T09:27:21.346Z,23.99
2022-07-25T09:29:52.564Z,23.91
2022-07-25T09:32:25.505Z,23.84
2022-07-25T09:34:53.859Z,23.83
2022-07-25T09:37:27.460Z,23.85
2022-07-25T09:39:55.924Z,23.87
2022-07-25T09:42:25.796Z,23.94
2022-07-25T09:45:12.924Z,24.09
2022-07-25T09:47:52.175Z,24.21
2022-07-25T09:50:22.189Z,24.28
2022-07-25T09:52:55.781Z,24.33
2022-07-25T09:55:24.890Z,24.37
2022-07-25T09:57:53.682Z,24.44
2022-07-25T10:00:26.122Z,24.58
2022-07-25T10:03:09.919Z,24.71
2022-07-25T10:05:51.510Z,24.84
2022-07-25T10:08:21.528Z,25.00
2022-07-25T10:10:49.975Z,25.20
2022-07-25T10:13:30.865Z,25.39
2022-07-25T10:15:59.216Z,25.45
2022-07-25T10:18:30.124Z,25.46
2022-07-25T10:21:28.709Z,25.54
2022-07-25T10:24:05.560Z,25.56
2022-07-25T10:26:39.589Z,25.63
2022-07-25T10:29:13.149Z,25.81
2022-07-25T10:31:49.997Z,26.07
2022-07-25T10:34:33.545Z,26.29
2022-07-25T10:37:14.936Z,26.29
2022-07-25T10:39:47.010Z,26.07
2022-07-25T10:42:17.148Z,25.93
2022-07-25T10:44:48.776Z,25.77
2022-07-25T10:47:18.152Z,25.58
2022-07-25T10:50:16.918Z,25.33
2022-07-25T10:52:57.906Z,25.04
2022-07-25T10:55:28.980Z,24.77
2022-07-25T10:58:20.298Z,24.56
2022-07-25T11:00:51.431Z,24.47
2022-07-25T11:03:22.012Z,24.45
2022-07-25T11:05:54.789Z,24.45
2022-07-25T11:08:34.469Z,24.43
2022-07-25T11:11:03.433Z,24.33
2022-07-25T11:13:37.281Z,24.27
2022-07-25T11:16:06.867Z,24.07
2022-07-25T11:18:39.114Z,23.81
2022-07-25T11:21:09.458Z,23.64
2022-07-25T11:23:37.703Z,23.50
2022-07-25T11:26:11.440Z,23.47
2022-07-25T11:28:45.688Z,23.47
2022-07-25T11:31:15.568Z,23.47
2022-07-25T11:33:47.941Z,23.47
2022-07-25T11:36:17.408Z,23.51
2022-07-25T11:38:49.327Z,23.76
2022-07-25T11:41:28.305Z,24.08
2022-07-25T11:43:57.459Z,24.17
2022-07-25T11:46:26.154Z,24.08
2022-07-25T11:49:07.081Z,23.98
2022-07-25T11:51:39.404Z,23.88
2022-07-25T11:54:10.568Z,23.82
2022-07-25T11:56:42.853Z,23.81
2022-07-25T11:59:12.483Z,23.79
2022-07-25T12:01:45.294Z,23.85
2022-07-25T12:04:18.909Z,23.91
2022-07-25T12:06:49.348Z,23.98
2022-07-25T12:09:20.867Z,24.02
2022-07-25T12:11:50.109Z,24.02
2022-07-25T12:14:50.869Z,23.96
2022-07-25T12:17:16.666Z,23.91
2022-07-25T12:19:47.231Z,23.86
2022-07-25T12:22:15.666Z,23.86
2022-07-25T12:24:44.769Z,23.74
2022-07-25T12:27:13.207Z,23.64
2022-07-25T12:29:41.763Z,23.48
2022-07-25T12:32:10.217Z,23.32
2022-07-25T12:34:38.552Z,23.13
2022-07-25T12:37:06.933Z,22.94
2022-07-25T12:39:36.770Z,22.84
2022-07-25T12:42:05.413Z,22.95
2022-07-25T12:44:33.866Z,23.16
2022-07-25T12:47:02.151Z,23.30
2022-07-25T12:49:30.572Z,23.40
2022-07-25T12:51:59.233Z,23.44
2022-07-25T12:54:27.607Z,23.47
2022-07-25T12:56:56.179Z,23.52
2022-07-25T12:59:24.648Z,23.59
2022-07-25T13:01:53.224Z,23.77
2022-07-25T13:04:21.917Z,23.81
2022-07-25T13:06:50.346Z,23.83
2022-07-25T13:09:18.726Z,23.84
2022-07-25T13:11:53.837Z,23.89
2022-07-25T13:14:23.207Z,23.97
2022-07-25T13:16:51.857Z,24.05
2022-07-25T13:19:21.314Z,24.04
2022-07-25T13:21:49.663Z,24.03
2022-07-25T13:24:18.238Z,24.04
2022-07-25T13:26:46.718Z,24.06
2022-07-25T13:29:15.330Z,24.05
2022-07-25T13:31:48.413Z,23.98
2022-07-25T13:34:17.161Z,23.96
2022-07-25T13:36:46.553Z,23.96
2022-07-25T13:39:15.159Z,23.89
2022-07-25T13:41:47.190Z,23.81
2022-07-25T13:44:18.294Z,23.74
2022-07-25T13:46:50.072Z,23.68
2022-07-25T13:49:18.994Z,23.59
2022-07-25T13:51:47.662Z,23.58
2022-07-25T13:54:16.040Z,23.48
2022-07-25T13:56:44.555Z,23.38
2022-07-25T13:59:18.782Z,23.33
2022-07-25T14:01:50.488Z,23.27
2022-07-25T14:04:19.753Z,23.24
2022-07-25T14:06:52.259Z,23.22
2022-07-25T14:09:22.239Z,23.24
2022-07-25T14:11:51.099Z,23.24
2022-07-25T14:14:19.544Z,23.19
2022-07-25T14:16:49.006Z,23.13
2022-07-25T14:19:17.775Z,23.08
2022-07-25T14:21:46.290Z,23.06
2022-07-25T14:24:14.715Z,23.01
2022-07-25T14:26:43.381Z,23.00
2022-07-25T14:29:12.376Z,22.98
2022-07-25T14:31:43.506Z,22.97
2022-07-25T14:34:15.795Z,22.98
2022-07-25T14:36:46.300Z,22.94
2022-07-25T14:39:16.448Z,22.97
2022-07-25T14:41:48.210Z,23.03
2022-07-25T14:44:16.639Z,23.07
2022-07-25T14:46:45.308Z,23.14
2022-07-25T14:49:14.687Z,23.22
2022-07-25T14:51:45.361Z,23.23
2022-07-25T14:54:13.844Z,23.15
2022-07-25T14:56:44.403Z,23.18
2022-07-25T14:59:12.920Z,23.34
2022-07-25T15:01:41.512Z,23.52
2022-07-25T15:04:10.051Z,23.70
2022-07-25T15:06:38.571Z,23.87
2022-07-25T15:09:07.486Z,23.99
2022-07-25T15:11:36.453Z,24.03
2022-07-25T15:14:04.728Z,23.98
2022-07-25T15:16:33.133Z,23.90
2022-07-25T15:19:17.699Z,23.86
2022-07-25T15:21:46.516Z,23.89
2022-07-25T15:24:14.864Z,23.83
2022-07-25T15:26:43.632Z,23.71
2022-07-25T15:29:13.661Z,23.55
2022-07-25T15:31:42.059Z,23.40
2022-07-25T15:34:10.694Z,23.31
2022-07-25T15:36:39.143Z,23.30
2022-07-25T15:39:08.173Z,23.33
2022-07-25T15:41:38.377Z,23.28
2022-07-25T15:44:06.835Z,23.23
2022-07-25T15:46:35.340Z,23.22
2022-07-25T15:49:04.607Z,23.19
2022-07-25T15:51:39.889Z,23.14
2022-07-25T15:54:09.392Z,23.15
2022-07-25T15:56:38.138Z,23.17
2022-07-25T15:59:07.722Z,23.17
2022-07-25T16:01:36.662Z,23.15
2022-07-25T16:04:05.467Z,23.11
2022-07-25T16:06:34.332Z,23.05
2022-07-25T16:09:03.929Z,22.94
2022-07-25T16:11:35.622Z,22.82
2022-07-25T16:14:04.495Z,22.69
2022-07-25T16:16:32.922Z,22.64
2022-07-25T16:19:01.386Z,22.62
2022-07-25T16:21:30.542Z,22.64
2022-07-25T16:23:59.094Z,22.64
2022-07-25T16:26:27.534Z,22.58
2022-07-25T16:29:05.762Z,22.51
2022-07-25T16:31:35.906Z,22.48
2022-07-25T16:34:04.472Z,22.42
2022-07-25T16:36:32.951Z,22.36
2022-07-25T16:39:03.103Z,22.32
2022-07-25T16:41:31.525Z,22.22
2022-07-25T16:43:59.877Z,22.18
2022-07-25T16:46:28.732Z,22.23
2022-07-25T16:48:57.382Z,22.21
2022-07-25T16:51:26.141Z,22.17
2022-07-25T16:53:55.574Z,22.14
2022-07-25T16:56:23.981Z,22.12
2022-07-25T16:58:53.859Z,22.07
2022-07-25T17:01:22.437Z,22.02
2022-07-25T17:03:50.903Z,21.94
2022-07-25T17:06:19.792Z,21.86
2022-07-25T17:08:48.364Z,21.80
2022-07-25T17:11:16.710Z,21.79
2022-07-25T17:13:45.661Z,21.76
2022-07-25T17:16:14.137Z,21.75
2022-07-25T17:18:42.513Z,21.74
2022-07-25T17:21:10.864Z,21.70
2022-07-25T17:23:39.279Z,21.69
2022-07-25T17:26:07.635Z,21.66
2022-07-25T17:28:39.993Z,21.60
2022-07-25T17:31:08.596Z,21.57
2022-07-25T17:33:37.049Z,21.52
2022-07-25T17:36:08.420Z,21.48
2022-07-25T17:38:37.815Z,21.38
2022-07-25T17:41:06.542Z,21.31
2022-07-25T17:43:35.203Z,21.23
2022-07-25T17:46:03.594Z,21.16
2022-07-25T17:48:32.153Z,21.09
2022-07-25T17:51:00.730Z,21.06
2022-07-25T17:53:29.012Z,21.00
2022-07-25T17:55:57.426Z,20.95
2022-07-25T17:58:25.745Z,20.90
2022-07-25T18:00:58.158Z,20.87
2022-07-25T18:03:29.323Z,20.87
2022-07-25T18:05:57.760Z,20.87
2022-07-25T18:08:26.333Z,20.86
2022-07-25T18:10:54.721Z,20.81
2022-07-25T18:13:23.247Z,20.80
2022-07-25T18:15:51.812Z,20.79
2022-07-25T18:18:21.010Z,20.79
2022-07-25T18:20:49.393Z,20.76
2022-07-25T18:23:18.089Z,20.73
2022-07-25T18:25:46.736Z,20.73
2022-07-25T18:28:15.170Z,20.72
2022-07-25T18:30:43.727Z,20.74
2022-07-25T18:33:12.295Z,20.74
2022-07-25T18:35:40.658Z,20.76
2022-07-25T18:38:09.870Z,20.75
2022-07-25T18:40:38.319Z,20.75
2022-07-25T18:43:08.820Z,20.73
2022-07-25T18:45:37.953Z,20.72
2022-07-25T18:48:08.443Z,20.71
2022-07-25T18:50:36.845Z,20.72
2022-07-25T18:53:05.460Z,20.73
2022-07-25T18:55:33.832Z,20.73
2022-07-25T18:58:02.279Z,20.72
2022-07-25T19:00:30.942Z,20.69
2022-07-25T19:02:59.215Z,20.68
2022-07-25T19:05:27.643Z,20.67
2022-07-25T19:07:59.694Z,20.63
2022-07-25T19:10:28.056Z,20.59
2022-07-25T19:12:56.383Z,20.53
2022-07-25T19:15:25.819Z,20.49
2022-07-25T19:17:57.454Z,20.51
2022-07-25T19:20:28.870Z,20.50
2022-07-25T19:22:57.252Z,20.50
2022-07-25T19:25:25.483Z,20.45
2022-07-25T19:27:54.206Z,20.43
2022-07-25T19:30:25.893Z,20.42
2022-07-25T19:32:54.494Z,20.43
2022-07-25T19:35:26.294Z,20.39
2022-07-25T19:37:54.823Z,20.39
2022-07-25T19:40:23.250Z,20.39
2022-07-25T19:42:51.588Z,20.38
2022-07-25T19:45:19.949Z,20.37
2022-07-25T19:47:49.623Z,20.35
2022-07-25T19:50:18.373Z,20.34
2022-07-25T19:52:46.988Z,20.31
2022-07-25T19:55:15.457Z,20.24
2022-07-25T19:57:43.993Z,20.19
2022-07-25T20:00:12.909Z,20.13
2022-07-25T20:02:41.695Z,20.06
2022-07-25T20:05:11.890Z,20.02
2022-07-25T20:07:40.320Z,19.99
2022-07-25T20:10:10.269Z,19.94
2022-07-25T20:12:38.912Z,19.90
2022-07-25T20:15:07.688Z,19.86
2022-07-25T20:17:36.091Z,19.82
2022-07-25T20:20:05.741Z,19.77
2022-07-25T20:22:37.571Z,19.74
2022-07-25T20:25:08.641Z,19.67
2022-07-25T20:27:37.198Z,19.63
2022-07-25T20:30:07.791Z,19.60
2022-07-25T20:32:36.269Z,19.58
2022-07-25T20:35:08.094Z,19.56
2022-07-25T20:37:36.570Z,19.55
2022-07-25T20:40:07.398Z,19.53
2022-07-25T20:42:37.614Z,19.50
2022-07-25T20:45:08.708Z,19.49
2022-07-25T20:47:37.080Z,19.47
2022-07-25T20:50:05.885Z,19.44
2022-07-25T20:52:34.406Z,19.41
2022-07-25T20:55:06.677Z,19.40
2022-07-25T20:57:35.697Z,19.38
2022-07-25T21:00:04.916Z,19.34
2022-07-25T21:02:34.011Z,19.30
2022-07-25T21:05:03.845Z,19.28
2022-07-25T21:07:32.288Z,19.25
2022-07-25T21:10:00.613Z,19.20
2022-07-25T21:12:32.589Z,19.17
2022-07-25T21:15:01.719Z,19.14
2022-07-25T21:17:30.102Z,19.11
2022-07-25T21:19:58.871Z,19.07
2022-07-25T21:22:30.479Z,19.04
2022-07-25T21:25:01.626Z,19.02
2022-07-25T21:27:30.634Z,19.00
2022-07-25T21:29:59.021Z,18.99
2022-07-25T21:32:27.869Z,18.95
2022-07-25T21:34:56.233Z,18.92
2022-07-25T21:37:24.620Z,18.88
2022-07-25T21:39:54.953Z,18.87
2022-07-25T21:42:23.285Z,18.83
2022-07-25T21:44:51.990Z,18.82
2022-07-25T21:47:20.302Z,18.81
2022-07-25T21:50:07.286Z,18.78
2022-07-25T21:52:35.810Z,18.76
2022-07-25T21:55:05.050Z,18.73
2022-07-25T21:57:34.475Z,18.70
2022-07-25T22:00:08.738Z,18.70
2022-07-25T22:02:43.663Z,18.69
2022-07-25T22:05:13.808Z,18.67
2022-07-25T22:07:42.784Z,18.67
2022-07-25T22:10:13.133Z,18.68
2022-07-25T22:12:45.585Z,18.67
2022-07-25T22:15:14.291Z,18.67
2022-07-25T22:17:49.068Z,18.68
2022-07-25T22:20:19.473Z,18.68
2022-07-25T22:22:48.766Z,18.68
2022-07-25T22:25:17.618Z,18.72
2022-07-25T22:27:45.970Z,18.74
2022-07-25T22:30:18.855Z,18.76
2022-07-25T22:32:48.690Z,18.77
2022-07-25T22:35:17.980Z,18.79
2022-07-25T22:37:46.572Z,18.80
2022-07-25T22:40:14.925Z,18.81
2022-07-25T22:42:43.381Z,18.82
2022-07-25T22:45:12.000Z,18.81
2022-07-25T22:47:40.415Z,18.82
2022-07-25T22:50:09.906Z,18.82
2022-07-25T22:52:38.260Z,18.84
2022-07-25T22:55:08.629Z,18.84
2022-07-25T22:57:37.744Z,18.84
2022-07-25T23:00:08.844Z,18.83
2022-07-25T23:02:37.988Z,18.84
2022-07-25T23:05:07.620Z,18.84
2022-07-25T23:07:35.976Z,18.85
2022-07-25T23:10:05.472Z,18.85
2022-07-25T23:12:33.877Z,18.85
2022-07-25T23:15:03.390Z,18.84
2022-07-25T23:17:31.751Z,18.83
2022-07-25T23:20:00.222Z,18.80
2022-07-25T23:22:28.801Z,18.80
2022-07-25T23:24:58.545Z,18.77
2022-07-25T23:27:27.352Z,18.74
2022-07-25T23:29:55.706Z,18.68
2022-07-25T23:32:24.074Z,18.64
2022-07-25T23:34:52.437Z,18.56
2022-07-25T23:37:20.828Z,18.51
2022-07-25T23:39:49.304Z,18.45
2022-07-25T23:42:17.679Z,18.40
2022-07-25T23:44:46.678Z,18.37
2022-07-25T23:47:15.462Z,18.35
2022-07-25T23:49:46.373Z,18.33
2022-07-25T23:52:14.709Z,18.32
2022-07-25T23:54:43.045Z,18.31
2022-07-25T23:57:12.723Z,18.29
2022-07-25T23:59:41.073Z,18.24
